Time;durP1;ratioP1;P1;durP2;ratioP2;P2;SDS_P1;SDS_P2;PMS_P1;PMS_P2;Temp;Humidity;BMP_temperature;BMP_pressure;BME280_temperature;BME280_humidity;BME280_pressure;Samples;Min_cycle;Max_cycle;Signal;HPM_P1;HPM_P2
2021/01/03 00:01:13;;;;;;;163.32;107.38;;;205.30;1792.00;;;;;;5136341;27;20048;-78
2021/01/03 00:03:39;;;;;;;138.88;95.15;;;205.20;1792.00;;;;;;5135984;27;20058;-77
2021/01/03 00:06:13;;;;;;;116.00;79.10;;;205.30;1792.00;;;;;;5136374;27;20039;-77
2021/01/03 00:08:40;;;;;;;103.13;66.10;;;205.20;1792.00;;;;;;5117466;27;20118;-77
2021/01/03 00:11:06;;;;;;;100.95;68.53;;;205.10;1792.00;;;;;;5136138;27;20098;-76
2021/01/03 00:13:31;;;;;;;90.60;58.35;;;205.00;1817.60;;;;;;5117715;27;20451;-77
2021/01/03 00:15:57;;;;;;;98.70;62.28;;;205.10;1792.00;;;;;;5136038;27;20479;-76
2021/01/03 00:18:23;;;;;;;119.80;82.30;;;205.10;1792.00;;;;;;5136048;27;20029;-84
2021/01/03 00:20:49;;;;;;;151.15;96.22;;;205.10;1792.00;;;;;;5135979;27;20023;-78
2021/01/03 00:23:15;;;;;;;133.73;87.47;;;205.10;1817.60;;;;;;5135943;27;20027;-77
2021/01/03 00:25:41;;;;;;;127.00;82.57;;;205.00;1817.60;;;;;;5135865;27;20419;-77
2021/01/03 00:28:07;;;;;;;106.35;65.57;;;204.90;1817.60;;;;;;5135326;27;20039;-77
2021/01/03 00:30:32;;;;;;;100.78;62.88;;;204.80;1817.60;;;;;;5135769;27;20016;-77
2021/01/03 00:32:58;;;;;;;87.78;56.15;;;204.90;1817.60;;;;;;5135829;27;20083;-77
2021/01/03 00:35:31;;;;;;;74.32;49.05;;;204.80;1817.60;;;;;;5135626;27;20027;-79
2021/01/03 00:38:00;;;;;;;68.85;43.75;;;204.90;1843.20;;;;;;5117377;27;20048;-78
2021/01/03 00:40:27;;;;;;;69.78;41.42;;;204.90;1817.60;;;;;;5135763;27;20015;-77
2021/01/03 00:42:52;;;;;;;48.72;29.08;;;204.90;1817.60;;;;;;5135790;27;20023;-78
2021/01/03 00:45:18;;;;;;;57.78;36.58;;;205.00;1817.60;;;;;;5117070;27;20020;-77
2021/01/03 00:47:44;;;;;;;53.45;36.50;;;204.90;1817.60;;;;;;5135537;27;20035;-82
2021/01/03 00:50:12;;;;;;;48.08;30.17;;;204.90;1817.60;;;;;;5135424;27;20102;-77
2021/01/03 00:52:38;;;;;;;41.50;28.95;;;205.00;1817.60;;;;;;5116796;27;20030;-76
2021/01/03 00:55:05;;;;;;;53.58;32.85;;;205.00;1817.60;;;;;;5116856;27;20035;-77
2021/01/03 00:57:31;;;;;;;50.83;33.35;;;205.00;1817.60;;;;;;5117048;27;20447;-77
2021/01/03 00:59:57;;;;;;;52.20;34.08;;;205.00;1817.60;;;;;;5135540;27;20098;-77
2021/01/03 01:02:22;;;;;;;50.78;33.88;;;205.00;1817.60;;;;;;5134885;27;20023;-77
2021/01/03 01:04:48;;;;;;;51.17;35.55;;;205.00;1817.60;;;;;;5116872;27;20519;-78
2021/01/03 01:07:14;;;;;;;48.95;33.95;;;205.00;1817.60;;;;;;5135033;27;20053;-77
2021/01/03 01:09:40;;;;;;;35.97;21.80;;;205.00;1817.60;;;;;;5116364;27;20044;-77
2021/01/03 01:12:06;;;;;;;20.42;13.85;;;205.10;1817.60;;;;;;5135090;27;20055;-77
2021/01/03 01:14:32;;;;;;;22.23;14.57;;;205.20;1817.60;;;;;;5135104;27;20019;-77
2021/01/03 01:16:57;;;;;;;16.13;9.60;;;205.30;1817.60;;;;;;5134941;27;20019;-78
2021/01/03 01:19:23;;;;;;;14.77;9.18;;;205.40;1817.60;;;;;;5134890;27;20023;-78
2021/01/03 01:21:49;;;;;;;19.08;11.95;;;205.50;1792.00;;;;;;5134608;27;20023;-77
2021/01/03 01:24:15;;;;;;;21.58;11.65;;;205.60;1792.00;;;;;;5134628;27;20031;-77
2021/01/03 01:26:41;;;;;;;19.27;12.45;;;205.60;1792.00;;;;;;5116008;27;20027;-77
2021/01/03 01:29:06;;;;;;;24.98;12.98;;;205.70;1792.00;;;;;;5134770;27;20019;-77
2021/01/03 01:31:32;;;;;;;26.30;14.73;;;205.70;1766.40;;;;;;5134310;27;20030;-78
2021/01/03 01:33:58;;;;;;;25.73;13.80;;;230.40;1792.00;;;;;;5134542;27;20197;-75
2021/01/03 01:36:25;;;;;;;23.15;14.10;;;230.40;1766.40;;;;;;5134591;27;20361;-75
2021/01/03 01:38:50;;;;;;;30.65;15.98;;;230.50;1766.40;;;;;;5134475;27;20015;-77
2021/01/03 01:41:16;;;;;;;27.20;15.15;;;230.50;1766.40;;;;;;5133844;27;20034;-78
2021/01/03 01:43:42;;;;;;;22.55;14.27;;;230.50;1766.40;;;;;;5134658;27;20085;-77
2021/01/03 01:46:17;;;;;;;20.95;12.65;;;230.60;1766.40;;;;;;5134410;27;20050;-76
2021/01/03 01:48:46;;;;;;;18.65;13.52;;;230.60;1766.40;;;;;;5134435;27;20101;-77
2021/01/03 01:51:28;;;;;;;25.65;15.20;;;230.60;1766.40;;;;;;5115890;27;20023;-77
2021/01/03 01:54:19;;;;;;;54.63;35.28;;;230.60;1766.40;;;;;;5115758;28;20027;-77
2021/01/03 01:57:06;;;;;;;70.40;47.58;;;230.60;1766.40;;;;;;5134277;27;20019;-75
2021/01/03 01:59:38;;;;;;;71.35;41.90;;;230.60;1792.00;;;;;;5115795;28;20453;-77
2021/01/03 02:02:23;;;;;;;34.00;19.55;;;230.60;1766.40;;;;;;5134322;28;20030;-78
2021/01/03 02:04:59;;;;;;;55.67;26.45;;;230.50;1766.40;;;;;;5115957;28;20394;-78
2021/01/03 02:07:35;;;;;;;40.97;24.52;;;230.50;1766.40;;;;;;5134296;28;20027;-78
2021/01/03 02:10:21;;;;;;;48.95;27.30;;;230.60;1766.40;;;;;;5133815;28;20475;-76
2021/01/03 02:13:00;;;;;;;38.05;22.63;;;230.60;1766.40;;;;;;5115644;28;20027;-76
2021/01/03 02:15:29;;;;;;;44.70;25.92;;;230.60;1766.40;;;;;;5134275;28;20023;-77
2021/01/03 02:17:55;;;;;;;25.63;14.88;;;230.60;1792.00;;;;;;5115867;28;20387;-77
2021/01/03 02:20:24;;;;;;;18.60;12.18;;;230.60;1766.40;;;;;;5134069;28;20015;-78
2021/01/03 02:22:58;;;;;;;18.23;10.45;;;230.60;1766.40;;;;;;5133753;28;20031;-76
2021/01/03 02:25:24;;;;;;;17.73;11.27;;;230.60;1766.40;;;;;;5134025;28;20495;-78
2021/01/03 02:28:10;;;;;;;45.75;28.00;;;230.60;1766.40;;;;;;5115132;28;20058;-77
2021/01/03 02:30:37;;;;;;;93.15;59.72;;;230.60;1792.00;;;;;;5133899;28;20093;-77
2021/01/03 02:33:26;;;;;;;82.82;51.30;;;230.50;1766.40;;;;;;5115594;28;20063;-77
2021/01/03 02:36:05;;;;;;;86.68;53.40;;;230.40;1792.00;;;;;;5133787;28;20019;-77
2021/01/03 02:38:35;;;;;;;77.53;49.53;;;205.70;1792.00;;;;;;5115379;28;20019;-76
2021/01/03 02:41:01;;;;;;;68.80;42.75;;;205.60;1792.00;;;;;;5133733;28;20502;-78
2021/01/03 02:43:27;;;;;;;58.80;38.58;;;205.40;1817.60;;;;;;5134102;28;20019;-78
2021/01/03 02:45:54;;;;;;;53.28;33.97;;;205.40;1817.60;;;;;;5115381;28;20056;-75
2021/01/03 02:48:23;;;;;;;50.90;34.15;;;205.30;1843.20;;;;;;5134026;28;20031;-76
2021/01/03 02:50:50;;;;;;;49.17;32.28;;;205.40;1843.20;;;;;;5133937;28;20400;-76
2021/01/03 02:53:18;;;;;;;53.40;37.17;;;205.40;1843.20;;;;;;5118466;27;20423;-77
2021/01/03 02:55:44;;;;;;;55.80;35.80;;;205.30;1843.20;;;;;;5137451;27;20024;-78
2021/01/03 02:58:09;;;;;;;44.40;30.65;;;205.20;1843.20;;;;;;5119329;27;20084;-78
2021/01/03 03:00:37;;;;;;;57.67;36.45;;;205.20;1843.20;;;;;;5137958;27;20031;-77
2021/01/03 03:03:07;;;;;;;57.30;39.03;;;205.20;1843.20;;;;;;5137518;27;20062;-77
2021/01/03 03:05:33;;;;;;;65.38;42.40;;;205.20;1868.80;;;;;;5137365;27;20118;-79
2021/01/03 03:08:00;;;;;;;71.47;51.08;;;205.20;1868.80;;;;;;5137409;27;20031;-77
2021/01/03 03:10:26;;;;;;;75.30;49.05;;;205.20;1868.80;;;;;;5137281;27;20070;-77
2021/01/03 03:12:55;;;;;;;64.68;45.40;;;205.20;1868.80;;;;;;5118786;27;20035;-78
2021/01/03 03:15:23;;;;;;;66.15;46.17;;;205.20;1868.80;;;;;;5137326;27;20061;-76
2021/01/03 03:17:49;;;;;;;71.90;49.42;;;205.20;1868.80;;;;;;5137329;27;20470;-76
2021/01/03 03:20:17;;;;;;;81.68;48.17;;;205.20;1868.80;;;;;;5137451;27;20027;-77
2021/01/03 03:22:44;;;;;;;72.13;47.13;;;205.20;1868.80;;;;;;5136978;27;20592;-78
2021/01/03 03:25:10;;;;;;;73.40;49.72;;;205.20;1868.80;;;;;;5136843;27;20126;-77
2021/01/03 03:27:36;;;;;;;75.43;50.65;;;205.20;1868.80;;;;;;5137118;27;20023;-77
2021/01/03 03:30:09;;;;;;;82.95;52.70;;;205.20;1868.80;;;;;;5137231;27;20480;-77
2021/01/03 03:32:35;;;;;;;76.18;46.00;;;205.20;1868.80;;;;;;5137017;27;20026;-77
2021/01/03 03:35:01;;;;;;;72.05;47.25;;;205.20;1868.80;;;;;;5118548;27;20027;-77
2021/01/03 03:37:27;;;;;;;65.43;43.40;;;205.20;1868.80;;;;;;5136809;27;20098;-77
2021/01/03 03:39:53;;;;;;;73.50;47.00;;;205.20;1894.40;;;;;;5118139;27;20023;-77
2021/01/03 03:42:19;;;;;;;68.10;44.78;;;205.10;1868.80;;;;;;5118190;27;20117;-76
2021/01/03 03:44:44;;;;;;;72.60;49.35;;;205.10;1868.80;;;;;;5136916;27;20026;-77
2021/01/03 03:47:10;;;;;;;79.50;55.50;;;205.20;1868.80;;;;;;5136688;27;20031;-76
2021/01/03 03:49:36;;;;;;;82.82;57.22;;;205.20;1868.80;;;;;;5136774;27;20015;-77
2021/01/03 03:52:04;;;;;;;84.05;55.20;;;205.20;1868.80;;;;;;5136578;27;20023;-77
2021/01/03 03:54:30;;;;;;;68.25;44.85;;;205.20;1894.40;;;;;;5136461;27;20467;-77
2021/01/03 03:57:01;;;;;;;68.43;47.65;;;205.20;1894.40;;;;;;5136578;27;20079;-77
2021/01/03 03:59:27;;;;;;;65.20;45.45;;;205.20;1894.40;;;;;;5136436;27;20094;-77
2021/01/03 04:01:54;;;;;;;60.17;42.78;;;205.20;1894.40;;;;;;5136359;27;20023;-77
2021/01/03 04:04:20;;;;;;;59.58;41.00;;;205.20;1868.80;;;;;;5116996;27;20019;-77
2021/01/03 04:06:47;;;;;;;61.03;40.83;;;205.20;1894.40;;;;;;5136273;27;20042;-78
2021/01/03 04:09:13;;;;;;;63.15;43.75;;;205.20;1868.80;;;;;;5136212;27;20080;-77
2021/01/03 04:11:41;;;;;;;52.97;39.22;;;205.10;1894.40;;;;;;5135811;27;20027;-77
2021/01/03 04:14:07;;;;;;;54.88;38.20;;;205.10;1894.40;;;;;;5136096;27;20020;-77
2021/01/03 04:16:34;;;;;;;49.90;35.92;;;205.10;1894.40;;;;;;5117306;27;20019;-77
2021/01/03 04:19:00;;;;;;;57.33;38.67;;;205.10;1894.40;;;;;;5135993;27;20027;-76
2021/01/03 04:21:25;;;;;;;294.58;156.52;;;205.10;1894.40;;;;;;5136276;27;20030;-75
2021/01/03 04:23:51;;;;;;;64.75;42.47;;;205.00;1894.40;;;;;;5135889;27;20027;-76
2021/01/03 04:26:21;;;;;;;108.85;65.68;;;204.90;1920.00;;;;;;5135932;27;20102;-80
2021/01/03 04:28:48;;;;;;;135.32;75.85;;;205.10;1920.00;;;;;;5136050;27;20030;-76
2021/01/03 04:31:20;;;;;;;106.40;61.55;;;205.00;1920.00;;;;;;5135968;27;20090;-76
2021/01/03 04:33:46;;;;;;;94.07;56.05;;;205.10;1894.40;;;;;;5135718;27;20026;-77
2021/01/03 04:36:16;;;;;;;90.13;52.70;;;205.00;1920.00;;;;;;5135466;27;20467;-80
2021/01/03 04:38:43;;;;;;;88.68;54.35;;;205.00;1920.00;;;;;;5135472;27;20432;-77
2021/01/03 04:41:25;;;;;;;71.22;47.22;;;205.00;1920.00;;;;;;5135529;27;20019;-77
2021/01/03 04:43:51;;;;;;;60.72;39.80;;;205.00;1920.00;;;;;;5135721;27;20020;-75
2021/01/03 04:46:20;;;;;;;63.42;42.22;;;205.10;1894.40;;;;;;5135519;27;20084;-75
2021/01/03 04:48:50;;;;;;;61.75;39.33;;;205.10;1894.40;;;;;;5135456;27;20047;-78
2021/01/03 04:51:32;;;;;;;52.78;33.97;;;205.20;1894.40;;;;;;5135164;27;20471;-76
2021/01/03 04:54:12;;;;;;;53.45;36.17;;;205.20;1894.40;;;;;;5135460;27;20463;-77
2021/01/03 04:56:41;;;;;;;48.10;31.92;;;205.10;1894.40;;;;;;5116885;27;20023;-77
2021/01/03 04:59:12;;;;;;;52.72;35.53;;;205.00;1894.40;;;;;;5135436;27;20474;-77
2021/01/03 05:01:38;;;;;;;58.65;37.72;;;205.10;1920.00;;;;;;5116723;27;20038;-77
2021/01/03 05:04:43;;;;;;;71.93;44.65;;;205.10;1894.40;;;;;;5135198;27;20019;-78
2021/01/03 05:07:14;;;;;;;71.03;44.25;;;205.00;1920.00;;;;;;5135286;27;20062;-77
2021/01/03 05:09:41;;;;;;;65.85;42.60;;;205.10;1894.40;;;;;;5116604;27;20023;-78
2021/01/03 05:12:32;;;;;;;67.20;41.13;;;205.10;1920.00;;;;;;5116137;27;20372;-75
2021/01/03 05:15:13;;;;;;;60.05;39.85;;;205.10;1920.00;;;;;;5135053;27;20024;-80
2021/01/03 05:17:39;;;;;;;58.95;39.47;;;205.10;1920.00;;;;;;5135000;27;20042;-76
2021/01/03 05:20:07;;;;;;;59.08;35.75;;;205.20;1920.00;;;;;;5135100;27;20027;-80
2021/01/03 05:22:43;;;;;;;55.67;32.30;;;205.20;1894.40;;;;;;5135111;27;20102;-77
2021/01/03 05:25:10;;;;;;;42.05;27.27;;;205.20;1920.00;;;;;;5134278;27;20091;-76
2021/01/03 05:27:36;;;;;;;29.92;21.00;;;205.20;1894.40;;;;;;5116475;27;20479;-76
2021/01/03 05:30:28;;;;;;;42.47;23.92;;;205.30;1894.40;;;;;;5116280;27;20030;-78
2021/01/03 05:33:05;;;;;;;41.75;24.83;;;205.40;1894.40;;;;;;5130836;27;20031;-79
2021/01/03 05:35:36;;;;;;;45.90;26.90;;;205.30;1894.40;;;;;;5134789;27;20551;-78
2021/01/03 05:38:02;;;;;;;70.70;45.13;;;205.40;1894.40;;;;;;5134726;27;20047;-77
2021/01/03 05:40:35;;;;;;;80.35;52.00;;;205.40;1894.40;;;;;;5116427;27;20183;-79
2021/01/03 05:43:20;;;;;;;101.35;65.22;;;205.30;1894.40;;;;;;5134626;27;20023;-78
2021/01/03 05:46:24;;;;;;;65.32;42.28;;;205.30;1894.40;;;;;;5134840;27;20031;-79
2021/01/03 05:49:23;;;;;;;83.03;53.50;;;205.10;1920.00;;;;;;5116152;27;20072;-77
2021/01/03 05:52:16;;;;;;;75.93;49.78;;;205.20;1920.00;;;;;;5134765;27;20263;-76
2021/01/03 05:54:42;;;;;;;88.13;59.58;;;205.10;1920.00;;;;;;5133551;27;20522;-79
2021/01/03 05:57:17;;;;;;;68.97;49.25;;;205.10;1920.00;;;;;;5134428;27;20451;-77
2021/01/03 05:59:45;;;;;;;60.60;42.03;;;205.10;1920.00;;;;;;5134531;27;20019;-77
2021/01/03 06:02:28;;;;;;;63.20;43.83;;;205.00;1920.00;;;;;;5134647;27;20022;-77
2021/01/03 06:05:07;;;;;;;66.28;48.00;;;205.10;1920.00;;;;;;5134665;28;20072;-79
2021/01/03 06:07:34;;;;;;;75.72;50.85;;;205.00;1945.60;;;;;;5134070;28;20031;-79
2021/01/03 06:10:00;;;;;;;74.30;50.22;;;204.90;1945.60;;;;;;5134382;28;20050;-80
2021/01/03 06:12:31;;;;;;;58.22;41.47;;;204.90;1945.60;;;;;;5134253;28;20140;-76
2021/01/03 06:15:04;;;;;;;53.20;38.75;;;204.90;1945.60;;;;;;5134159;28;20027;-77
2021/01/03 06:17:42;;;;;;;69.80;44.27;;;205.00;1945.60;;;;;;5134276;28;20047;-77
2021/01/03 06:20:33;;;;;;;52.20;36.45;;;204.90;1945.60;;;;;;5134211;28;20089;-77
2021/01/03 06:23:10;;;;;;;62.08;43.50;;;204.90;1945.60;;;;;;5134166;28;20102;-77
2021/01/03 06:25:57;;;;;;;45.03;30.40;;;204.90;1945.60;;;;;;5133817;28;20079;-78
2021/01/03 06:28:22;;;;;;;59.97;36.55;;;204.90;1945.60;;;;;;5137735;27;20038;-77
2021/01/03 06:31:06;;;;;;;73.70;39.88;;;204.90;1945.60;;;;;;5138235;27;20023;-76
2021/01/03 06:33:56;;;;;;;62.00;42.30;;;204.90;1920.00;;;;;;5138443;27;20043;-78
2021/01/03 06:36:31;;;;;;;78.57;52.92;;;205.00;1945.60;;;;;;5138122;27;20030;-78
2021/01/03 06:39:08;;;;;;;85.90;55.40;;;205.00;1945.60;;;;;;5137932;27;20491;-77
2021/01/03 06:41:46;;;;;;;77.90;54.60;;;205.00;1945.60;;;;;;5138098;27;20502;-79
2021/01/03 06:44:46;;;;;;;77.18;53.90;;;204.90;1945.60;;;;;;5137799;27;20482;-78
2021/01/03 06:47:43;;;;;;;83.00;53.28;;;204.90;1945.60;;;;;;5119259;27;20517;-78
2021/01/03 06:50:15;;;;;;;94.82;66.45;;;204.90;1945.60;;;;;;5137519;27;20023;-82
2021/01/03 06:53:08;;;;;;;98.53;67.32;;;204.90;1945.60;;;;;;5138041;27;20050;-78
2021/01/03 06:55:46;;;;;;;232.57;150.50;;;205.00;1945.60;;;;;;5118400;27;20027;-76
2021/01/03 06:58:37;;;;;;;150.50;102.13;;;205.00;1945.60;;;;;;5137636;27;20019;-75
2021/01/03 07:01:28;;;;;;;163.05;117.53;;;205.00;1945.60;;;;;;5137309;27;20023;-77
2021/01/03 07:03:56;;;;;;;651.50;430.52;;;205.10;1945.60;;;;;;5137582;27;20076;-75
2021/01/03 07:06:31;;;;;;;398.73;237.07;;;205.10;1920.00;;;;;;5137273;27;20113;-76
2021/01/03 07:09:03;;;;;;;325.35;208.13;;;205.00;1945.60;;;;;;5137270;27;20016;-76
2021/01/03 07:11:36;;;;;;;153.98;99.22;;;205.10;1945.60;;;;;;5137326;27;20018;-77
2021/01/03 07:14:04;;;;;;;133.93;86.43;;;205.10;1920.00;;;;;;5137206;27;20027;-77
2021/01/03 07:16:52;;;;;;;141.88;95.50;;;205.10;1920.00;;;;;;5137223;27;20019;-76
2021/01/03 07:19:43;;;;;;;115.40;76.55;;;205.20;1920.00;;;;;;5137273;27;20011;-76
2021/01/03 07:22:28;;;;;;;145.15;109.38;;;205.30;1894.40;;;;;;5137034;27;20547;-76
2021/01/03 07:24:54;;;;;;;117.32;80.00;;;205.30;1894.40;;;;;;5136954;27;20051;-77
2021/01/03 07:27:25;;;;;;;112.18;80.00;;;205.40;1894.40;;;;;;5137019;27;20038;-76
2021/01/03 07:29:57;;;;;;;113.38;81.60;;;205.40;1894.40;;;;;;5137167;27;20024;-76
2021/01/03 07:32:44;;;;;;;119.47;87.80;;;205.50;1894.40;;;;;;5136899;27;20012;-75
2021/01/03 07:35:33;;;;;;;138.77;101.40;;;205.50;1894.40;;;;;;5136087;27;20043;-75
2021/01/03 07:38:34;;;;;;;119.82;84.10;;;205.50;1868.80;;;;;;5135903;27;20043;-76
2021/01/03 07:41:06;;;;;;;98.47;71.15;;;205.40;1894.40;;;;;;5053705;28;20436;-75
2021/01/03 07:44:10;;;;;;;109.53;79.18;;;205.40;1894.40;;;;;;5053618;28;20045;-75
2021/01/03 07:46:49;;;;;;;118.03;87.90;;;205.50;1868.80;;;;;;4975082;28;20039;-75
2021/01/03 07:49:43;;;;;;;120.00;83.97;;;205.60;1868.80;;;;;;4975068;28;20031;-77
2021/01/03 07:52:36;;;;;;;201.27;130.95;;;230.40;1843.20;;;;;;4973694;28;20039;-75
2021/01/03 07:55:03;;;;;;;129.05;89.47;;;230.50;1868.80;;;;;;4969082;28;20475;-77
2021/01/03 07:57:28;;;;;;;130.02;89.07;;;230.60;1843.20;;;;;;4978460;28;20067;-77
2021/01/03 07:59:56;;;;;;;124.38;86.30;;;230.70;1843.20;;;;;;4955184;29;20416;-77
2021/01/03 08:02:31;;;;;;;113.10;75.47;;;230.70;1817.60;;;;;;4938822;29;20420;-78
2021/01/03 08:04:59;;;;;;;112.65;83.68;;;230.70;1843.20;;;;;;4971114;28;20118;-77
2021/01/03 08:07:26;;;;;;;118.35;88.78;;;230.90;1817.60;;;;;;4954908;28;20397;-77
2021/01/03 08:09:52;;;;;;;101.50;77.80;;;230.90;1817.60;;;;;;4962787;28;20027;-78
2021/01/03 08:12:41;;;;;;;90.88;68.95;;;230.90;1817.60;;;;;;4960030;28;20074;-77
2021/01/03 08:15:21;;;;;;;78.68;57.60;;;231.00;1792.00;;;;;;4993450;28;20069;-77
2021/01/03 08:17:47;;;;;;;79.85;55.38;;;231.10;1792.00;;;;;;5109842;27;20035;-78
2021/01/03 08:20:31;;;;;;;101.80;64.90;;;231.20;1766.40;;;;;;5136052;27;20050;-76
2021/01/03 08:23:24;;;;;;;85.32;59.78;;;256.10;1766.40;;;;;;5136038;27;20474;-78
2021/01/03 08:26:09;;;;;;;95.43;67.53;;;256.20;1766.40;;;;;;5117278;27;20061;-80
2021/01/03 08:28:42;;;;;;;125.93;89.28;;;256.20;1740.80;;;;;;5117518;27;20097;-77
2021/01/03 08:31:12;;;;;;;138.47;96.37;;;256.20;1766.40;;;;;;5117482;27;20026;-77
2021/01/03 08:33:40;;;;;;;126.40;86.60;;;256.20;1766.40;;;;;;5135527;27;20027;-76
2021/01/03 08:36:31;;;;;;;152.40;101.20;;;256.20;1766.40;;;;;;5111899;27;20364;-77
2021/01/03 08:39:09;;;;;;;139.25;99.28;;;256.30;1766.40;;;;;;5050607;28;20025;-77
2021/01/03 08:41:49;;;;;;;124.07;89.90;;;256.30;1766.40;;;;;;5057763;28;20485;-76
2021/01/03 08:44:20;;;;;;;174.70;140.73;;;256.20;1766.40;;;;;;5055771;28;20067;-77
2021/01/03 08:46:46;;;;;;;146.23;115.97;;;256.30;1766.40;;;;;;5049941;28;20043;-76
2021/01/03 08:49:12;;;;;;;110.63;83.43;;;256.30;1766.40;;;;;;5042938;28;20021;-76
2021/01/03 08:51:38;;;;;;;90.53;68.63;;;256.50;1766.40;;;;;;5051788;28;20063;-77
2021/01/03 08:54:07;;;;;;;80.00;58.67;;;256.60;1766.40;;;;;;5052532;28;20041;-76
2021/01/03 08:56:49;;;;;;;87.30;65.95;;;281.60;1766.40;;;;;;5072158;28;20062;-77
2021/01/03 08:59:17;;;;;;;105.88;77.88;;;281.90;1766.40;;;;;;5072263;28;20603;-77
2021/01/03 09:01:43;;;;;;;132.13;90.20;;;282.10;1740.80;;;;;;5072020;28;20060;-76
2021/01/03 09:04:17;;;;;;;138.75;99.60;;;282.30;1740.80;;;;;;5071922;28;20044;-78
2021/01/03 09:06:49;;;;;;;89.30;68.97;;;282.30;1715.20;;;;;;5071857;28;20116;-77
2021/01/03 09:09:18;;;;;;;85.47;64.40;;;282.40;1715.20;;;;;;5071968;28;20120;-78
2021/01/03 09:11:55;;;;;;;60.35;43.97;;;282.50;1689.60;;;;;;5054984;28;20032;-77
2021/01/03 09:14:43;;;;;;;45.40;33.70;;;307.30;1689.60;;;;;;5054757;28;20432;-77
2021/01/03 09:17:21;;;;;;;45.85;31.75;;;307.50;1664.00;;;;;;5111178;27;20100;-78
2021/01/03 09:19:54;;;;;;;103.72;76.40;;;307.70;1638.40;;;;;;5134888;27;20107;-78
2021/01/03 09:22:36;;;;;;;39.53;31.08;;;308.00;1612.80;;;;;;5134971;27;20019;-78
2021/01/03 09:25:18;;;;;;;43.70;30.88;;;307.90;1587.20;;;;;;5134555;27;20039;-77
2021/01/03 09:27:51;;;;;;;43.88;32.97;;;307.70;1612.80;;;;;;5116280;27;20035;-77
2021/01/03 09:30:20;;;;;;;49.42;37.88;;;307.40;1638.40;;;;;;5134654;27;20029;-77
2021/01/03 09:32:52;;;;;;;46.17;35.15;;;307.30;1664.00;;;;;;5116362;27;20384;-78
2021/01/03 09:35:35;;;;;;;63.58;47.97;;;307.20;1664.00;;;;;;5134800;27;20025;-78
2021/01/03 09:38:17;;;;;;;77.50;54.73;;;307.20;1664.00;;;;;;5134799;27;20019;-78
2021/01/03 09:41:06;;;;;;;94.00;60.80;;;307.30;1664.00;;;;;;5116244;27;20429;-78
2021/01/03 09:43:38;;;;;;;57.45;38.03;;;307.40;1664.00;;;;;;5116087;27;20027;-78
2021/01/03 09:46:31;;;;;;;111.35;66.30;;;307.40;1664.00;;;;;;5134531;27;20094;-77
2021/01/03 09:49:22;;;;;;;79.43;51.63;;;307.40;1664.00;;;;;;5134574;27;20024;-76
2021/01/03 09:52:08;;;;;;;44.47;32.78;;;307.40;1664.00;;;;;;5134359;27;20023;-77
2021/01/03 09:54:52;;;;;;;44.50;33.45;;;307.40;1664.00;;;;;;5134330;27;20106;-78
2021/01/03 09:57:41;;;;;;;;;;;307.50;1664.00;;;;;;5116115;28;20478;-77
2021/01/03 10:00:15;;;;;;;38.95;27.48;;;307.70;1638.40;;;;;;5051330;28;20003;-79
2021/01/03 10:02:42;;;;;;;46.28;37.63;;;307.90;1587.20;;;;;;5050238;28;20057;-78
2021/01/03 10:05:44;;;;;;;41.88;32.17;;;332.80;1612.80;;;;;;5051072;28;20040;-77
2021/01/03 10:08:27;;;;;;;49.60;36.05;;;333.20;1587.20;;;;;;5031021;28;20033;-77
2021/01/03 10:11:00;;;;;;;44.63;33.42;;;333.50;1561.60;;;;;;5014301;28;20424;-76
2021/01/03 10:13:29;;;;;;;49.92;35.25;;;333.60;1536.00;;;;;;5031108;28;20072;-78
2021/01/03 10:15:56;;;;;;;38.00;28.48;;;333.70;1536.00;;;;;;5030787;28;20036;-77
2021/01/03 10:18:38;;;;;;;40.58;29.33;;;333.70;1484.80;;;;;;5031031;28;20040;-78
2021/01/03 10:21:31;;;;;;;36.38;29.42;;;333.70;1484.80;;;;;;5030955;28;20033;-77
2021/01/03 10:24:03;;;;;;;40.22;31.27;;;358.40;1484.80;;;;;;5031035;28;20193;-78
2021/01/03 10:26:34;;;;;;;44.22;33.90;;;333.70;1459.20;;;;;;5030757;28;20513;-76
2021/01/03 10:29:01;;;;;;;42.05;33.38;;;358.60;1459.20;;;;;;5030910;28;20061;-77
2021/01/03 10:31:41;;;;;;;31.75;25.45;;;358.70;1408.00;;;;;;5030782;28;20061;-77
2021/01/03 10:34:08;;;;;;;36.28;30.23;;;358.80;1408.00;;;;;;5014110;28;20095;-78
2021/01/03 10:36:34;;;;;;;53.70;32.88;;;358.80;1433.60;;;;;;5025399;28;20032;-77
2021/01/03 10:39:00;;;;;;;50.47;35.83;;;358.90;1408.00;;;;;;5070760;28;20028;-77
2021/01/03 10:41:32;;;;;;;39.30;31.13;;;359.00;1408.00;;;;;;5084897;28;20047;-79
2021/01/03 10:43:58;;;;;;;40.53;28.85;;;359.10;1408.00;;;;;;5115121;28;20023;-77
2021/01/03 10:46:23;;;;;;;43.75;32.05;;;359.10;1382.40;;;;;;5115089;28;20105;-77
2021/01/03 10:48:50;;;;;;;46.40;32.38;;;359.00;1408.00;;;;;;5133907;28;20490;-77
2021/01/03 10:51:16;;;;;;;43.83;35.80;;;358.90;1382.40;;;;;;5133859;28;20023;-77
2021/01/03 10:53:43;;;;;;;38.95;25.17;;;359.00;1382.40;;;;;;5115289;28;20106;-77
2021/01/03 10:56:09;;;;;;;38.65;25.65;;;359.00;1356.80;;;;;;5133762;28;20015;-77
2021/01/03 10:58:38;;;;;;;42.53;28.25;;;359.00;1382.40;;;;;;5133634;28;20023;-77
2021/01/03 11:01:04;;;;;;;39.70;27.90;;;358.90;1331.20;;;;;;5115281;28;20019;-77
2021/01/03 11:03:29;;;;;;;36.42;29.05;;;358.70;1382.40;;;;;;5133863;28;20384;-77
2021/01/03 11:05:55;;;;;;;40.50;31.17;;;358.80;1408.00;;;;;;5115337;28;20414;-78
2021/01/03 11:08:21;;;;;;;45.80;33.95;;;358.90;1408.00;;;;;;5133590;28;20035;-76
2021/01/03 11:10:47;;;;;;;44.40;32.28;;;358.90;1408.00;;;;;;5133618;28;20139;-77
2021/01/03 11:13:13;;;;;;;47.25;33.65;;;359.00;1382.40;;;;;;5134858;27;20058;-77
2021/01/03 11:15:39;;;;;;;58.75;35.42;;;359.00;1382.40;;;;;;5118811;27;20023;-77
2021/01/03 11:18:05;;;;;;;39.03;27.70;;;359.10;1382.40;;;;;;5137437;27;20531;-77
2021/01/03 11:20:30;;;;;;;25.92;19.40;;;359.10;1356.80;;;;;;5137430;27;20019;-76
2021/01/03 11:22:56;;;;;;;29.52;19.15;;;359.10;1356.80;;;;;;5137050;27;20392;-78
2021/01/03 11:25:22;;;;;;;33.70;25.20;;;359.10;1356.80;;;;;;5137035;27;20402;-77
2021/01/03 11:27:50;;;;;;;32.85;24.88;;;359.00;1356.80;;;;;;5137042;27;20475;-78
2021/01/03 11:30:17;;;;;;;44.60;28.63;;;359.10;1356.80;;;;;;5118375;27;20034;-78
2021/01/03 11:32:43;;;;;;;43.28;33.45;;;359.20;1382.40;;;;;;5136946;27;20019;-77
2021/01/03 11:35:10;;;;;;;43.40;32.53;;;359.20;1356.80;;;;;;5136944;27;20016;-77
2021/01/03 11:37:36;;;;;;;41.20;32.78;;;359.10;1356.80;;;;;;5136764;27;20583;-77
2021/01/03 11:40:03;;;;;;;64.07;44.42;;;359.20;1382.40;;;;;;5118517;27;20114;-78
2021/01/03 11:42:35;;;;;;;48.38;30.38;;;359.30;1382.40;;;;;;5118332;27;20356;-77
2021/01/03 11:45:03;;;;;;;45.50;37.03;;;384.00;1382.40;;;;;;5118534;27;20027;-75
2021/01/03 11:47:30;;;;;;;50.53;39.08;;;384.00;1382.40;;;;;;5132211;27;20039;-77
2021/01/03 11:49:55;;;;;;;67.53;49.15;;;359.10;1408.00;;;;;;5130741;27;20023;-76
2021/01/03 11:52:24;;;;;;;54.45;41.42;;;359.00;1433.60;;;;;;5122588;27;20023;-75
2021/01/03 11:54:50;;;;;;;56.72;41.88;;;359.20;1382.40;;;;;;5126112;27;20103;-75
2021/01/03 11:57:16;;;;;;;53.30;39.38;;;359.00;1433.60;;;;;;5126146;27;20098;-75
2021/01/03 11:59:42;;;;;;;55.80;37.05;;;358.90;1408.00;;;;;;5120987;27;20157;-75
2021/01/03 12:02:09;;;;;;;35.10;27.33;;;359.10;1408.00;;;;;;5115893;28;20024;-75
2021/01/03 12:04:36;;;;;;;44.53;30.75;;;359.00;1408.00;;;;;;5115722;28;20047;-75
2021/01/03 12:07:08;;;;;;;86.38;61.55;;;359.00;1408.00;;;;;;5115772;28;20038;-74
2021/01/03 12:09:34;;;;;;;47.83;35.90;;;359.20;1408.00;;;;;;5115929;28;20023;-75
2021/01/03 12:12:09;;;;;;;34.05;27.63;;;359.10;1408.00;;;;;;5115388;28;20372;-74
2021/01/03 12:14:35;;;;;;;67.93;45.42;;;358.90;1433.60;;;;;;5115614;28;20483;-75
2021/01/03 12:17:04;;;;;;;123.50;86.43;;;359.00;1433.60;;;;;;5115387;28;20486;-75
2021/01/03 12:19:31;;;;;;;75.13;54.55;;;358.90;1433.60;;;;;;5096812;28;20443;-77
2021/01/03 12:21:58;;;;;;;52.53;39.47;;;358.90;1459.20;;;;;;5115536;28;20024;-75